sensor_id;sensor_type;location;lat;lon;timestamp;pressure;altitude;pressure_sealevel;temperature;humidity
65019;BME280;66069;51.164;-114.452;2024-02-15T00:01:04;88430.19;;;17.06;48.42
65019;BME280;66069;51.164;-114.452;2024-02-15T00:03:31;88429.84;;;17.00;48.57
65019;BME280;66069;51.164;-114.452;2024-02-15T00:05:58;88438.94;;;17.03;48.58
65019;BME280;66069;51.164;-114.452;2024-02-15T00:08:24;88437.03;;;17.03;48.58
65019;BME280;66069;51.164;-114.452;2024-02-15T00:10:52;88426.09;;;16.90;48.72
65019;BME280;66069;51.164;-114.452;2024-02-15T00:13:19;88443.09;;;17.00;48.36
65019;BME280;66069;51.164;-114.452;2024-02-15T00:15:45;88447.25;;;17.01;48.16
65019;BME280;66069;51.164;-114.452;2024-02-15T00:18:16;88444.22;;;16.99;48.03
65019;BME280;66069;51.164;-114.452;2024-02-15T00:20:42;88443.13;;;16.97;47.74
65019;BME280;66069;51.164;-114.452;2024-02-15T00:23:09;88446.50;;;16.97;47.61
65019;BME280;66069;51.164;-114.452;2024-02-15T00:25:36;88451.03;;;17.04;47.50
65019;BME280;66069;51.164;-114.452;2024-02-15T00:28:02;88452.19;;;17.03;47.44
65019;BME280;66069;51.164;-114.452;2024-02-15T00:30:28;88459.72;;;17.04;47.42
65019;BME280;66069;51.164;-114.452;2024-02-15T00:32:55;88457.47;;;16.99;47.53
65019;BME280;66069;51.164;-114.452;2024-02-15T00:35:21;88467.28;;;17.06;47.65
65019;BME280;66069;51.164;-114.452;2024-02-15T00:37:47;88463.13;;;17.05;47.75
65019;BME280;66069;51.164;-114.452;2024-02-15T00:40:15;88455.94;;;17.05;47.85
65019;BME280;66069;51.164;-114.452;2024-02-15T00:42:41;88466.16;;;17.10;48.46
65019;BME280;66069;51.164;-114.452;2024-02-15T00:45:08;88467.25;;;17.13;48.40
65019;BME280;66069;51.164;-114.452;2024-02-15T00:47:35;88470.31;;;17.15;48.29
65019;BME280;66069;51.164;-114.452;2024-02-15T00:50:02;88472.19;;;17.14;48.17
65019;BME280;66069;51.164;-114.452;2024-02-15T00:52:29;88475.59;;;17.15;48.12
65019;BME280;66069;51.164;-114.452;2024-02-15T00:54:56;88484.31;;;17.15;48.21
65019;BME280;66069;51.164;-114.452;2024-02-15T00:57:23;88477.13;;;17.09;47.90
65019;BME280;66069;51.164;-114.452;2024-02-15T00:59:49;88471.47;;;17.03;48.02
65019;BME280;66069;51.164;-114.452;2024-02-15T01:02:15;88483.56;;;17.08;47.68
65019;BME280;66069;51.164;-114.452;2024-02-15T01:04:41;88495.66;;;17.12;47.57
65019;BME280;66069;51.164;-114.452;2024-02-15T01:07:08;88497.56;;;17.12;47.37
65019;BME280;66069;51.164;-114.452;2024-02-15T01:09:34;88501.34;;;17.11;47.40
65019;BME280;66069;51.164;-114.452;2024-02-15T01:12:01;88507.41;;;17.11;47.32
65019;BME280;66069;51.164;-114.452;2024-02-15T01:14:30;88515.34;;;17.08;47.12
65019;BME280;66069;51.164;-114.452;2024-02-15T01:16:56;88517.63;;;17.09;47.05
65019;BME280;66069;51.164;-114.452;2024-02-15T01:19:23;88521.78;;;17.07;46.86
65019;BME280;66069;51.164;-114.452;2024-02-15T01:21:49;88532.38;;;17.07;46.85
65019;BME280;66069;51.164;-114.452;2024-02-15T01:24:15;88525.56;;;17.06;46.79
65019;BME280;66069;51.164;-114.452;2024-02-15T01:26:41;88525.97;;;17.04;46.78
65019;BME280;66069;51.164;-114.452;2024-02-15T01:29:08;88533.91;;;17.04;46.72
65019;BME280;66069;51.164;-114.452;2024-02-15T01:31:37;88543.38;;;17.05;46.87
65019;BME280;66069;51.164;-114.452;2024-02-15T01:34:04;88546.78;;;17.06;47.03
65019;BME280;66069;51.164;-114.452;2024-02-15T01:36:31;88556.22;;;17.07;47.22
65019;BME280;66069;51.164;-114.452;2024-02-15T01:38:57;88556.97;;;17.07;47.17
65019;BME280;66069;51.164;-114.452;2024-02-15T01:41:23;88559.63;;;17.07;47.69
65019;BME280;66069;51.164;-114.452;2024-02-15T01:43:49;88556.63;;;17.05;47.81
65019;BME280;66069;51.164;-114.452;2024-02-15T01:46:16;88556.63;;;17.05;47.87
65019;BME280;66069;51.164;-114.452;2024-02-15T01:48:42;88560.78;;;17.06;48.01
65019;BME280;66069;51.164;-114.452;2024-02-15T01:51:10;88566.84;;;17.10;47.94
65019;BME280;66069;51.164;-114.452;2024-02-15T01:53:38;88557.38;;;17.06;47.69
65019;BME280;66069;51.164;-114.452;2024-02-15T01:56:06;88564.56;;;17.09;47.60
65019;BME280;66069;51.164;-114.452;2024-02-15T01:58:33;88568.34;;;17.08;47.42
65019;BME280;66069;51.164;-114.452;2024-02-15T02:01:01;88569.88;;;17.05;47.16
65019;BME280;66069;51.164;-114.452;2024-02-15T02:03:28;88579.72;;;17.08;47.17
65019;BME280;66069;51.164;-114.452;2024-02-15T02:05:54;88564.56;;;16.94;47.12
65019;BME280;66069;51.164;-114.452;2024-02-15T02:08:21;88580.84;;;17.04;46.82
65019;BME280;66069;51.164;-114.452;2024-02-15T02:10:48;88580.84;;;17.04;46.90
65019;BME280;66069;51.164;-114.452;2024-02-15T02:13:14;88575.94;;;17.02;46.99
65019;BME280;66069;51.164;-114.452;2024-02-15T02:15:41;88574.41;;;17.05;46.92
65019;BME280;66069;51.164;-114.452;2024-02-15T02:18:07;88579.72;;;17.05;46.88
65019;BME280;66069;51.164;-114.452;2024-02-15T02:20:35;88588.41;;;17.05;47.03
65019;BME280;66069;51.164;-114.452;2024-02-15T02:23:23;88588.03;;;17.07;46.97
65019;BME280;66069;51.164;-114.452;2024-02-15T02:25:52;88553.63;;;16.85;47.34
65019;BME280;66069;51.164;-114.452;2024-02-15T02:28:20;88570.25;;;16.97;47.36
65019;BME280;66069;51.164;-114.452;2024-02-15T02:30:47;88592.19;;;17.04;47.66
65019;BME280;66069;51.164;-114.452;2024-02-15T02:33:13;88585.00;;;17.01;47.73
65019;BME280;66069;51.164;-114.452;2024-02-15T02:35:47;88593.31;;;17.07;47.82
65019;BME280;66069;51.164;-114.452;2024-02-15T02:38:14;88594.84;;;17.04;47.87
65019;BME280;66069;51.164;-114.452;2024-02-15T02:40:41;88601.28;;;17.03;47.78
65019;BME280;66069;51.164;-114.452;2024-02-15T02:43:07;88603.94;;;17.03;47.54
65019;BME280;66069;51.164;-114.452;2024-02-15T02:45:33;88597.88;;;16.99;47.70
65019;BME280;66069;51.164;-114.452;2024-02-15T02:47:59;88601.66;;;17.02;47.36
65019;BME280;66069;51.164;-114.452;2024-02-15T02:50:26;88615.28;;;17.04;47.25
65019;BME280;66069;51.164;-114.452;2024-02-15T02:52:53;88603.56;;;16.98;47.11
65019;BME280;66069;51.164;-114.452;2024-02-15T02:55:19;88611.50;;;17.01;47.35
65019;BME280;66069;51.164;-114.452;2024-02-15T02:57:46;88608.47;;;16.99;47.00
65019;BME280;66069;51.164;-114.452;2024-02-15T03:00:13;88613.38;;;17.01;47.17
65019;BME280;66069;51.164;-114.452;2024-02-15T03:02:43;88605.44;;;17.01;47.04
65019;BME280;66069;51.164;-114.452;2024-02-15T03:05:09;88606.59;;;17.03;47.11
65019;BME280;66069;51.164;-114.452;2024-02-15T03:07:37;88607.72;;;16.99;47.27
65019;BME280;66069;51.164;-114.452;2024-02-15T03:10:04;88611.50;;;17.01;47.16
65019;BME280;66069;51.164;-114.452;2024-02-15T03:12:37;88613.78;;;17.03;47.69
65019;BME280;66069;51.164;-114.452;2024-02-15T03:15:04;88611.50;;;17.01;47.65
65019;BME280;66069;51.164;-114.452;2024-02-15T03:17:33;88599.41;;;16.93;47.92
65019;BME280;66069;51.164;-114.452;2024-02-15T03:19:59;88610.75;;;17.01;47.81
65019;BME280;66069;51.164;-114.452;2024-02-15T03:22:28;88614.53;;;17.03;47.61
65019;BME280;66069;51.164;-114.452;2024-02-15T03:24:55;88605.81;;;16.99;47.59
65019;BME280;66069;51.164;-114.452;2024-02-15T03:27:21;88618.34;;;17.02;47.41
65019;BME280;66069;51.164;-114.452;2024-02-15T03:29:49;88626.63;;;17.01;47.28
65019;BME280;66069;51.164;-114.452;2024-02-15T03:32:15;88625.88;;;17.00;47.19
65019;BME280;66069;51.164;-114.452;2024-02-15T03:34:42;88634.22;;;17.02;47.14
65019;BME280;66069;51.164;-114.452;2024-02-15T03:37:08;88631.19;;;17.00;47.03
65019;BME280;66069;51.164;-114.452;2024-02-15T03:39:35;88625.88;;;17.00;47.01
65019;BME280;66069;51.164;-114.452;2024-02-15T03:42:02;88620.22;;;16.98;46.76
65019;BME280;66069;51.164;-114.452;2024-02-15T03:44:29;88620.19;;;16.94;46.79
65019;BME280;66069;51.164;-114.452;2024-02-15T03:46:56;88625.50;;;16.91;46.76
65019;BME280;66069;51.164;-114.452;2024-02-15T03:49:24;88620.97;;;16.91;46.74
65019;BME280;66069;51.164;-114.452;2024-02-15T03:51:50;88622.84;;;16.94;46.62
65019;BME280;66069;51.164;-114.452;2024-02-15T03:54:17;88622.13;;;16.90;46.61
65019;BME280;66069;51.164;-114.452;2024-02-15T03:56:50;88628.53;;;16.97;46.83
65019;BME280;66069;51.164;-114.452;2024-02-15T03:59:20;88630.44;;;16.96;46.76
65019;BME280;66069;51.164;-114.452;2024-02-15T04:01:53;88629.69;;;16.95;46.95
65019;BME280;66069;51.164;-114.452;2024-02-15T04:04:20;88629.31;;;16.97;47.07
65019;BME280;66069;51.164;-114.452;2024-02-15T04:06:48;88633.47;;;16.98;47.74
65019;BME280;66069;51.164;-114.452;2024-02-15T04:09:15;88634.59;;;17.01;47.89
65019;BME280;66069;51.164;-114.452;2024-02-15T04:11:44;88642.94;;;17.03;47.96
65019;BME280;66069;51.164;-114.452;2024-02-15T04:14:12;88640.63;;;17.01;48.14
65019;BME280;66069;51.164;-114.452;2024-02-15T04:16:39;88648.59;;;17.08;48.62
65019;BME280;66069;51.164;-114.452;2024-02-15T04:19:05;88635.34;;;17.05;49.03
65019;BME280;66069;51.164;-114.452;2024-02-15T04:21:32;88642.16;;;17.13;48.88
65019;BME280;66069;51.164;-114.452;2024-02-15T04:23:58;88653.50;;;17.17;48.66
65019;BME280;66069;51.164;-114.452;2024-02-15T04:26:25;88656.53;;;17.19;48.49
65019;BME280;66069;51.164;-114.452;2024-02-15T04:28:53;88657.69;;;17.18;48.52
65019;BME280;66069;51.164;-114.452;2024-02-15T04:31:20;88659.94;;;17.19;48.19
65019;BME280;66069;51.164;-114.452;2024-02-15T04:33:53;88653.13;;;17.18;48.16
65019;BME280;66069;51.164;-114.452;2024-02-15T04:36:19;88648.97;;;17.14;47.99
65019;BME280;66069;51.164;-114.452;2024-02-15T04:38:52;88656.53;;;17.19;47.97
65019;BME280;66069;51.164;-114.452;2024-02-15T04:41:18;88647.84;;;17.15;47.75
65019;BME280;66069;51.164;-114.452;2024-02-15T04:43:51;88655.41;;;17.16;47.79
65019;BME280;66069;51.164;-114.452;2024-02-15T04:46:18;88659.56;;;17.17;47.44
65019;BME280;66069;51.164;-114.452;2024-02-15T04:48:50;88662.59;;;17.16;47.35
65019;BME280;66069;51.164;-114.452;2024-02-15T04:51:17;88652.38;;;17.11;47.17
65019;BME280;66069;51.164;-114.452;2024-02-15T04:53:43;88658.06;;;17.13;47.04
65019;BME280;66069;51.164;-114.452;2024-02-15T04:56:12;88659.56;;;17.14;46.86
65019;BME280;66069;51.164;-114.452;2024-02-15T04:58:43;88661.09;;;17.11;46.65
65019;BME280;66069;51.164;-114.452;2024-02-15T05:01:17;88662.59;;;17.16;46.63
65019;BME280;66069;51.164;-114.452;2024-02-15T05:03:44;88634.22;;;16.91;46.46
65019;BME280;66069;51.164;-114.452;2024-02-15T05:06:11;88671.28;;;17.13;46.58
65019;BME280;66069;51.164;-114.452;2024-02-15T05:08:41;88672.81;;;17.10;46.48
65019;BME280;66069;51.164;-114.452;2024-02-15T05:11:11;88677.38;;;17.10;46.19
65019;BME280;66069;51.164;-114.452;2024-02-15T05:13:44;88670.53;;;17.05;46.16
65019;BME280;66069;51.164;-114.452;2024-02-15T05:16:15;88670.91;;;17.07;46.04
65019;BME280;66069;51.164;-114.452;2024-02-15T05:18:41;88667.13;;;17.05;46.08
65019;BME280;66069;51.164;-114.452;2024-02-15T05:21:08;88668.66;;;17.02;45.86
65019;BME280;66069;51.164;-114.452;2024-02-15T05:23:43;88666.78;;;17.03;46.01
65019;BME280;66069;51.164;-114.452;2024-02-15T05:26:11;88669.78;;;17.01;45.89
65019;BME280;66069;51.164;-114.452;2024-02-15T05:28:51;88659.19;;;16.98;45.84
65019;BME280;66069;51.164;-114.452;2024-02-15T05:31:19;88668.63;;;16.95;45.69
65019;BME280;66069;51.164;-114.452;2024-02-15T05:33:46;88663.72;;;16.93;45.66
65019;BME280;66069;51.164;-114.452;2024-02-15T05:36:14;88662.59;;;16.94;45.71
65019;BME280;66069;51.164;-114.452;2024-02-15T05:38:41;88654.25;;;16.89;45.65
65019;BME280;66069;51.164;-114.452;2024-02-15T05:41:11;88659.94;;;16.91;45.65
65019;BME280;66069;51.164;-114.452;2024-02-15T05:43:40;88650.50;;;16.90;45.60
65019;BME280;66069;51.164;-114.452;2024-02-15T05:46:07;88660.34;;;16.89;45.51
65019;BME280;66069;51.164;-114.452;2024-02-15T05:48:35;88648.22;;;16.85;45.61
65019;BME280;66069;51.164;-114.452;2024-02-15T05:51:06;88657.69;;;16.86;45.45
65019;BME280;66069;51.164;-114.452;2024-02-15T05:53:33;88648.59;;;16.83;45.43
65019;BME280;66069;51.164;-114.452;2024-02-15T05:56:03;88647.06;;;16.82;45.38
65019;BME280;66069;51.164;-114.452;2024-02-15T05:58:33;88642.16;;;16.81;45.29
65019;BME280;66069;51.164;-114.452;2024-02-15T06:01:01;88641.78;;;16.79;45.43
65019;BME280;66069;51.164;-114.452;2024-02-15T06:03:31;88636.88;;;16.77;45.14
65019;BME280;66069;51.164;-114.452;2024-02-15T06:06:02;88642.53;;;16.76;45.41
65019;BME280;66069;51.164;-114.452;2024-02-15T06:08:33;88639.50;;;16.74;45.18
65019;BME280;66069;51.164;-114.452;2024-02-15T06:10:59;88641.03;;;16.71;45.18
65019;BME280;66069;51.164;-114.452;2024-02-15T06:13:26;88630.38;;;16.67;45.14
65019;BME280;66069;51.164;-114.452;2024-02-15T06:15:53;88639.84;;;16.68;45.13
65019;BME280;66069;51.164;-114.452;2024-02-15T06:18:20;88645.53;;;16.67;45.23
65019;BME280;66069;51.164;-114.452;2024-02-15T06:20:53;88639.44;;;16.63;45.09
65019;BME280;66069;51.164;-114.452;2024-02-15T06:23:20;88614.09;;;16.48;45.09
65019;BME280;66069;51.164;-114.452;2024-02-15T06:25:46;88640.59;;;16.58;45.19
65019;BME280;66069;51.164;-114.452;2024-02-15T06:28:17;88633.03;;;16.60;45.03
65019;BME280;66069;51.164;-114.452;2024-02-15T06:31:08;88625.81;;;16.57;45.12
65019;BME280;66069;51.164;-114.452;2024-02-15T06:33:53;88630.38;;;16.57;45.14
65019;BME280;66069;51.164;-114.452;2024-02-15T06:36:46;88628.88;;;16.52;45.05
65019;BME280;66069;51.164;-114.452;2024-02-15T06:39:31;88633.38;;;16.52;45.13
65019;BME280;66069;51.164;-114.452;2024-02-15T06:42:14;88625.84;;;16.47;44.91
65019;BME280;66069;51.164;-114.452;2024-02-15T06:44:43;88618.25;;;16.45;44.99
65019;BME280;66069;51.164;-114.452;2024-02-15T06:47:09;88616.00;;;16.47;45.04
65019;BME280;66069;51.164;-114.452;2024-02-15T06:49:39;88611.84;;;16.46;44.93
65019;BME280;66069;51.164;-114.452;2024-02-15T06:52:10;88611.47;;;16.40;45.07
65019;BME280;66069;51.164;-114.452;2024-02-15T06:54:40;88608.81;;;16.40;45.40
65019;BME280;66069;51.164;-114.452;2024-02-15T06:57:06;88608.81;;;16.40;45.06
65019;BME280;66069;51.164;-114.452;2024-02-15T06:59:33;88616.00;;;16.40;45.02
65019;BME280;66069;51.164;-114.452;2024-02-15T07:02:01;88609.56;;;16.34;45.15
65019;BME280;66069;51.164;-114.452;2024-02-15T07:04:30;88617.13;;;16.35;45.25
65019;BME280;66069;51.164;-114.452;2024-02-15T07:06:58;88617.09;;;16.32;45.07
65019;BME280;66069;51.164;-114.452;2024-02-15T07:09:25;88609.16;;;16.32;45.09
65019;BME280;66069;51.164;-114.452;2024-02-15T07:11:52;88614.06;;;16.33;45.16
65019;BME280;66069;51.164;-114.452;2024-02-15T07:14:18;88589.88;;;16.24;44.99
65019;BME280;66069;51.164;-114.452;2024-02-15T07:16:49;88595.16;;;16.24;45.07
65019;BME280;66069;51.164;-114.452;2024-02-15T07:19:18;88600.06;;;16.26;44.93
65019;BME280;66069;51.164;-114.452;2024-02-15T07:21:44;88605.00;;;16.24;45.01
65019;BME280;66069;51.164;-114.452;2024-02-15T07:24:11;88612.16;;;16.23;44.94
65019;BME280;66069;51.164;-114.452;2024-02-15T07:26:38;88603.84;;;16.21;45.12
65019;BME280;66069;51.164;-114.452;2024-02-15T07:29:04;88608.00;;;16.19;44.99
65019;BME280;66069;51.164;-114.452;2024-02-15T07:31:31;88613.28;;;16.19;44.86
65019;BME280;66069;51.164;-114.452;2024-02-15T07:33:59;88606.88;;;16.16;44.89
65019;BME280;66069;51.164;-114.452;2024-02-15T07:36:25;88614.81;;;16.16;44.89
65019;BME280;66069;51.164;-114.452;2024-02-15T07:38:54;88609.88;;;16.11;45.01
65019;BME280;66069;51.164;-114.452;2024-02-15T07:41:23;88608.75;;;16.12;44.85
65019;BME280;66069;51.164;-114.452;2024-02-15T07:43:50;88609.88;;;16.11;44.92
65019;BME280;66069;51.164;-114.452;2024-02-15T07:46:18;88595.13;;;16.03;44.82
65019;BME280;66069;51.164;-114.452;2024-02-15T07:48:45;88606.44;;;16.07;44.85
65019;BME280;66069;51.164;-114.452;2024-02-15T07:51:15;88603.44;;;16.05;44.87
65019;BME280;66069;51.164;-114.452;2024-02-15T07:53:42;88610.22;;;16.02;45.02
65019;BME280;66069;51.164;-114.452;2024-02-15T07:56:12;88612.09;;;16.02;44.98
65019;BME280;66069;51.164;-114.452;2024-02-15T07:58:43;88610.97;;;15.99;45.14
65019;BME280;66069;51.164;-114.452;2024-02-15T08:01:13;88608.72;;;15.98;44.96
65019;BME280;66069;51.164;-114.452;2024-02-15T08:03:40;88612.47;;;15.93;44.87
65019;BME280;66069;51.164;-114.452;2024-02-15T08:06:11;88604.91;;;15.95;44.91
65019;BME280;66069;51.164;-114.452;2024-02-15T08:08:39;88592.78;;;15.83;44.92
65019;BME280;66069;51.164;-114.452;2024-02-15T08:11:09;88606.78;;;15.91;44.90
65019;BME280;66069;51.164;-114.452;2024-02-15T08:13:46;88618.50;;;15.90;44.88
65019;BME280;66069;51.164;-114.452;2024-02-15T08:16:19;88613.56;;;15.88;44.82
65019;BME280;66069;51.164;-114.452;2024-02-15T08:18:46;88606.00;;;15.83;44.96
65019;BME280;66069;51.164;-114.452;2024-02-15T08:21:13;88616.97;;;15.85;44.88
65019;BME280;66069;51.164;-114.452;2024-02-15T08:23:40;88611.66;;;15.82;44.90
65019;BME280;66069;51.164;-114.452;2024-02-15T08:26:06;88606.00;;;15.80;44.86
65019;BME280;66069;51.164;-114.452;2024-02-15T08:28:32;88606.75;;;15.80;45.04
65019;BME280;66069;51.164;-114.452;2024-02-15T08:30:58;88602.97;;;15.78;45.06
65019;BME280;66069;51.164;-114.452;2024-02-15T08:33:25;88598.78;;;15.73;45.17
65019;BME280;66069;51.164;-114.452;2024-02-15T08:35:54;88601.81;;;15.72;44.84
65019;BME280;66069;51.164;-114.452;2024-02-15T08:38:24;88610.50;;;15.76;44.97
65019;BME280;66069;51.164;-114.452;2024-02-15T08:40:50;88610.88;;;15.74;44.92
65019;BME280;66069;51.164;-114.452;2024-02-15T08:43:17;88598.78;;;15.70;44.85
65019;BME280;66069;51.164;-114.452;2024-02-15T08:45:43;88607.09;;;15.72;44.89
65019;BME280;66069;51.164;-114.452;2024-02-15T08:48:10;88604.06;;;15.70;44.66
65019;BME280;66069;51.164;-114.452;2024-02-15T08:50:36;88608.22;;;15.67;44.76
65019;BME280;66069;51.164;-114.452;2024-02-15T08:53:03;88610.09;;;15.67;44.78
65019;BME280;66069;51.164;-114.452;2024-02-15T08:55:35;88605.94;;;15.66;44.82
65019;BME280;66069;51.164;-114.452;2024-02-15T08:58:01;88603.66;;;15.64;44.77
65019;BME280;66069;51.164;-114.452;2024-02-15T09:00:28;88598.72;;;15.59;44.88
65019;BME280;66069;51.164;-114.452;2024-02-15T09:02:55;88606.28;;;15.60;44.65
65019;BME280;66069;51.164;-114.452;2024-02-15T09:05:22;88608.88;;;15.57;44.72
65019;BME280;66069;51.164;-114.452;2024-02-15T09:07:50;88609.28;;;15.59;44.84
65019;BME280;66069;51.164;-114.452;2024-02-15T09:10:17;88603.22;;;15.55;44.91
65019;BME280;66069;51.164;-114.452;2024-02-15T09:12:44;88614.56;;;15.55;44.76
65019;BME280;66069;51.164;-114.452;2024-02-15T09:15:13;88617.19;;;15.55;44.87
65019;BME280;66069;51.164;-114.452;2024-02-15T09:17:44;88620.97;;;15.54;44.71
65019;BME280;66069;51.164;-114.452;2024-02-15T09:20:12;88615.28;;;15.52;44.89
65019;BME280;66069;51.164;-114.452;2024-02-15T09:22:51;88605.47;;;15.49;44.71
65019;BME280;66069;51.164;-114.452;2024-02-15T09:25:18;88602.03;;;15.42;44.79
65019;BME280;66069;51.164;-114.452;2024-02-15T09:27:45;88615.66;;;15.47;44.80
65019;BME280;66069;51.164;-114.452;2024-02-15T09:30:14;88611.47;;;15.43;44.66
65019;BME280;66069;51.164;-114.452;2024-02-15T09:32:41;88589.88;;;15.30;44.84
65019;BME280;66069;51.164;-114.452;2024-02-15T09:35:09;88598.94;;;15.32;44.46
65019;BME280;66069;51.164;-114.452;2024-02-15T09:37:36;88606.53;;;15.38;44.62
65019;BME280;66069;51.164;-114.452;2024-02-15T09:40:09;88619.03;;;15.41;44.78
65019;BME280;66069;51.164;-114.452;2024-02-15T09:42:36;88615.22;;;15.38;44.80
65019;BME280;66069;51.164;-114.452;2024-02-15T09:45:05;88620.13;;;15.40;44.69
65019;BME280;66069;51.164;-114.452;2024-02-15T09:47:35;88614.44;;;15.34;44.68
65019;BME280;66069;51.164;-114.452;2024-02-15T09:50:06;88625.41;;;15.36;44.81
65019;BME280;66069;51.164;-114.452;2024-02-15T09:52:32;88618.59;;;15.35;44.66
65019;BME280;66069;51.164;-114.452;2024-02-15T09:55:05;88628.78;;;15.33;44.39
65019;BME280;66069;51.164;-114.452;2024-02-15T09:57:36;88628.00;;;15.29;44.85
65019;BME280;66069;51.164;-114.452;2024-02-15T10:00:02;88607.19;;;15.17;44.45
65019;BME280;66069;51.164;-114.452;2024-02-15T10:02:35;88627.63;;;15.30;44.60
65019;BME280;66069;51.164;-114.452;2024-02-15T10:05:04;88619.28;;;15.25;44.43
65019;BME280;66069;51.164;-114.452;2024-02-15T10:07:30;88623.44;;;15.26;44.76
65019;BME280;66069;51.164;-114.452;2024-02-15T10:09:57;88626.09;;;15.26;44.50
65019;BME280;66069;51.164;-114.452;2024-02-15T10:12:39;88613.97;;;15.21;44.65
65019;BME280;66069;51.164;-114.452;2024-02-15T10:15:06;88615.13;;;15.24;44.58
65019;BME280;66069;51.164;-114.452;2024-02-15T10:17:33;88622.69;;;15.22;44.48
65019;BME280;66069;51.164;-114.452;2024-02-15T10:20:05;88611.72;;;15.16;44.58
65019;BME280;66069;51.164;-114.452;2024-02-15T10:22:31;88615.88;;;15.21;44.80
65019;BME280;66069;51.164;-114.452;2024-02-15T10:25:13;88619.63;;;15.20;44.63
65019;BME280;66069;51.164;-114.452;2024-02-15T10:27:40;88623.38;;;15.15;44.97
65019;BME280;66069;51.164;-114.452;2024-02-15T10:30:18;88630.19;;;15.16;44.64
65019;BME280;66069;51.164;-114.452;2024-02-15T10:32:45;88616.91;;;15.09;44.95
65019;BME280;66069;51.164;-114.452;2024-02-15T10:35:21;88628.28;;;15.13;44.68
65019;BME280;66069;51.164;-114.452;2024-02-15T10:37:48;88622.25;;;15.13;44.71
65019;BME280;66069;51.164;-114.452;2024-02-15T10:40:18;88628.66;;;15.12;44.54
65019;BME280;66069;51.164;-114.452;2024-02-15T10:42:48;88627.47;;;15.05;44.76
65019;BME280;66069;51.164;-114.452;2024-02-15T10:45:15;88629.75;;;15.07;44.58
65019;BME280;66069;51.164;-114.452;2024-02-15T10:47:46;88635.78;;;15.04;44.59
65019;BME280;66069;51.164;-114.452;2024-02-15T10:50:15;88639.19;;;15.08;44.39
65019;BME280;66069;51.164;-114.452;2024-02-15T10:53:26;88631.25;;;15.08;44.80
65019;BME280;66069;51.164;-114.452;2024-02-15T10:58:33;88643.38;;;15.13;44.96
65019;BME280;66069;51.164;-114.452;2024-02-15T11:01:06;88644.50;;;15.15;45.20
65019;BME280;66069;51.164;-114.452;2024-02-15T11:03:36;88642.28;;;15.17;45.52
65019;BME280;66069;51.164;-114.452;2024-02-15T11:06:03;88632.44;;;15.14;45.65
65019;BME280;66069;51.164;-114.452;2024-02-15T11:08:32;88637.78;;;15.25;45.84
65019;BME280;66069;51.164;-114.452;2024-02-15T11:10:59;88636.28;;;15.27;46.21
65019;BME280;66069;51.164;-114.452;2024-02-15T11:13:30;88629.91;;;15.28;46.40
65019;BME280;66069;51.164;-114.452;2024-02-15T11:15:56;88639.75;;;15.35;46.53
65019;BME280;66069;51.164;-114.452;2024-02-15T11:18:45;88637.09;;;15.39;46.32
65019;BME280;66069;51.164;-114.452;2024-02-15T11:21:15;88639.00;;;15.38;46.47
65019;BME280;66069;51.164;-114.452;2024-02-15T11:23:43;88639.78;;;15.42;46.33
65019;BME280;66069;51.164;-114.452;2024-02-15T11:26:45;88638.66;;;15.43;46.28
65019;BME280;66069;51.164;-114.452;2024-02-15T11:35:20;88646.97;;;15.45;46.15
65019;BME280;66069;51.164;-114.452;2024-02-15T11:42:59;88653.41;;;15.48;45.74
65019;BME280;66069;51.164;-114.452;2024-02-15T11:45:29;88640.94;;;15.48;45.50
65019;BME280;66069;51.164;-114.452;2024-02-15T11:48:00;88649.25;;;15.47;45.28
65019;BME280;66069;51.164;-114.452;2024-02-15T11:50:27;88645.81;;;15.46;45.28
65019;BME280;66069;51.164;-114.452;2024-02-15T11:53:02;88637.53;;;15.44;45.49
65019;BME280;66069;51.164;-114.452;2024-02-15T11:55:34;88650.03;;;15.54;45.86
65019;BME280;66069;51.164;-114.452;2024-02-15T11:58:04;88653.81;;;15.57;45.87
65019;BME280;66069;51.164;-114.452;2024-02-15T12:00:42;88652.34;;;15.59;45.88
65019;BME280;66069;51.164;-114.452;2024-02-15T12:03:27;88651.63;;;15.63;46.18
65019;BME280;66069;51.164;-114.452;2024-02-15T12:06:17;88650.88;;;15.69;46.34
65019;BME280;66069;51.164;-114.452;2024-02-15T12:09:02;88650.16;;;15.76;46.37
65019;BME280;66069;51.164;-114.452;2024-02-15T12:11:47;88644.91;;;15.79;46.58
65019;BME280;66069;51.164;-114.452;2024-02-15T12:14:31;88648.72;;;15.85;46.62
65019;BME280;66069;51.164;-114.452;2024-02-15T12:17:16;88657.81;;;15.92;46.66
65019;BME280;66069;51.164;-114.452;2024-02-15T12:20:02;88655.56;;;15.97;46.87
65019;BME280;66069;51.164;-114.452;2024-02-15T12:25:07;88652.94;;;16.04;46.82
65019;BME280;66069;51.164;-114.452;2024-02-15T12:27:46;88648.38;;;16.01;47.02
65019;BME280;66069;51.164;-114.452;2024-02-15T12:30:16;88660.16;;;16.18;47.13
65019;BME280;66069;51.164;-114.452;2024-02-15T12:32:47;88668.88;;;16.26;47.04
65019;BME280;66069;51.164;-114.452;2024-02-15T12:35:15;88657.16;;;16.27;47.16
65019;BME280;66069;51.164;-114.452;2024-02-15T12:40:36;88662.84;;;16.39;47.31
65019;BME280;66069;51.164;-114.452;2024-02-15T12:43:05;88667.41;;;16.50;47.18
65019;BME280;66069;51.164;-114.452;2024-02-15T12:45:32;88640.19;;;16.35;47.21
65019;BME280;66069;51.164;-114.452;2024-02-15T12:48:05;88661.03;;;16.61;47.22
65019;BME280;66069;51.164;-114.452;2024-02-15T12:50:32;88669.34;;;16.67;47.37
65019;BME280;66069;51.164;-114.452;2024-02-15T12:53:00;88670.91;;;16.72;47.39
65019;BME280;66069;51.164;-114.452;2024-02-15T12:55:29;88675.44;;;16.78;47.28
65019;BME280;66069;51.164;-114.452;2024-02-15T12:58:01;88678.50;;;16.84;47.10
65019;BME280;66069;51.164;-114.452;2024-02-15T13:00:31;88675.09;;;16.90;47.30